Time;durP1;ratioP1;P1;durP2;ratioP2;P2;SDS_P1;SDS_P2;PMS_P1;PMS_P2;Temp;Humidity;BMP_temperature;BMP_pressure;BME280_temperature;BME280_humidity;BME280_pressure;Samples;Min_cycle;Max_cycle;Signal;HPM_P1;HPM_P2
2024/03/05 00:00:59;;;;;;;66.57;23.50;;;;;;;;;;5051028;28;20031;-56
2024/03/05 00:03:25;;;;;;;64.88;21.50;;;;;;;;;;5072720;28;20490;-59
2024/03/05 00:05:51;;;;;;;66.03;22.38;;;;;;;;;;5069250;28;20048;-59
2024/03/05 00:08:17;;;;;;;69.45;22.65;;;;;;;;;;5068648;28;20067;-58
2024/03/05 00:10:43;;;;;;;57.33;21.27;;;;;;;;;;5070395;28;20444;-59
2024/03/05 00:13:09;;;;;;;64.40;23.35;;;;;;;;;;5069939;28;20036;-58
2024/03/05 00:15:35;;;;;;;69.05;23.30;;;;;;;;;;5070454;28;20025;-57
2024/03/05 00:18:04;;;;;;;62.53;21.52;;;;;;;;;;5069913;28;20040;-56
2024/03/05 00:20:30;;;;;;;69.30;23.30;;;;;;;;;;5072450;28;20020;-59
2024/03/05 00:22:58;;;;;;;63.25;21.52;;;;;;;;;;5074044;28;20027;-57
2024/03/05 00:25:24;;;;;;;75.47;22.38;;;;;;;;;;5061867;28;20021;-59
2024/03/05 00:27:50;;;;;;;69.47;23.00;;;;;;;;;;5069270;28;20039;-58
2024/03/05 00:30:18;;;;;;;61.85;21.33;;;;;;;;;;5066062;28;20035;-58
2024/03/05 00:32:45;;;;;;;55.30;22.15;;;;;;;;;;5070509;28;20114;-58
2024/03/05 00:35:11;;;;;;;55.72;20.40;;;;;;;;;;5066810;28;20116;-59
2024/03/05 00:37:37;;;;;;;52.25;18.08;;;;;;;;;;5070138;28;20092;-60
2024/03/05 00:40:08;;;;;;;69.72;22.20;;;;;;;;;;5073058;28;20036;-59
2024/03/05 00:42:34;;;;;;;50.45;19.27;;;;;;;;;;5068248;28;20028;-59
2024/03/05 00:45:00;;;;;;;63.80;21.35;;;;;;;;;;5065744;28;20036;-59
2024/03/05 00:47:26;;;;;;;56.05;21.05;;;;;;;;;;5050051;28;20064;-57
2024/03/05 00:49:51;;;;;;;59.80;21.48;;;;;;;;;;5070126;28;20024;-58
2024/03/05 00:52:17;;;;;;;58.05;22.25;;;;;;;;;;5067689;28;20357;-59
2024/03/05 00:54:45;;;;;;;72.40;23.35;;;;;;;;;;5068543;28;20445;-58
2024/03/05 00:57:11;;;;;;;60.97;21.73;;;;;;;;;;5065345;28;20025;-57
2024/03/05 00:59:38;;;;;;;70.90;23.27;;;;;;;;;;5078563;28;20020;-57
2024/03/05 01:02:04;;;;;;;70.32;26.00;;;;;;;;;;5067829;28;20372;-59
2024/03/05 01:04:30;;;;;;;69.45;21.92;;;;;;;;;;5067050;28;20016;-59
2024/03/05 01:06:59;;;;;;;67.78;21.00;;;;;;;;;;5068871;28;20040;-57
2024/03/05 01:09:25;;;;;;;71.72;23.55;;;;;;;;;;5074182;28;20051;-60
2024/03/05 01:11:52;;;;;;;60.40;21.55;;;;;;;;;;5064777;28;20032;-59
2024/03/05 01:14:18;;;;;;;62.17;22.35;;;;;;;;;;5066093;28;20024;-59
2024/03/05 01:16:44;;;;;;;68.57;22.73;;;;;;;;;;5063625;28;20074;-56
2024/03/05 01:19:12;;;;;;;62.22;22.55;;;;;;;;;;5066055;28;20029;-58
2024/03/05 01:21:38;;;;;;;60.80;23.10;;;;;;;;;;5067730;28;20127;-58
2024/03/05 01:24:04;;;;;;;66.80;22.60;;;;;;;;;;5069689;28;20032;-58
2024/03/05 01:26:30;;;;;;;72.65;22.48;;;;;;;;;;5063540;28;20032;-59
2024/03/05 01:28:56;;;;;;;65.80;22.30;;;;;;;;;;5069681;28;20044;-58
2024/03/05 01:31:22;;;;;;;60.35;22.27;;;;;;;;;;5066925;28;20032;-59
2024/03/05 01:33:49;;;;;;;60.05;21.45;;;;;;;;;;5070094;28;20066;-59
2024/03/05 01:36:17;;;;;;;62.65;20.35;;;;;;;;;;5045730;28;20037;-57
2024/03/05 01:38:43;;;;;;;65.93;23.77;;;;;;;;;;5064649;28;20493;-59
2024/03/05 01:41:09;;;;;;;55.20;20.55;;;;;;;;;;5069100;28;20095;-58
2024/03/05 01:43:36;;;;;;;60.75;19.13;;;;;;;;;;5070388;28;20020;-60
2024/03/05 01:46:03;;;;;;;58.65;20.63;;;;;;;;;;5065006;28;20028;-58
2024/03/05 01:48:29;;;;;;;53.03;19.75;;;;;;;;;;5063315;28;20074;-59
2024/03/05 01:50:56;;;;;;;50.65;19.50;;;;;;;;;;5065146;28;20028;-57
2024/03/05 01:53:22;;;;;;;53.97;20.13;;;;;;;;;;5063170;28;20425;-58
2024/03/05 01:55:49;;;;;;;65.03;20.60;;;;;;;;;;5051363;28;20035;-56
2024/03/05 01:58:17;;;;;;;67.90;22.00;;;;;;;;;;5067332;28;21012;-59
2024/03/05 02:00:44;;;;;;;62.88;23.05;;;;;;;;;;5069171;28;20017;-59
2024/03/05 02:03:13;;;;;;;66.20;24.15;;;;;;;;;;5063921;28;20111;-60
2024/03/05 02:05:43;;;;;;;79.20;24.40;;;;;;;;;;5071472;28;20032;-60
2024/03/05 02:08:09;;;;;;;63.55;22.20;;;;;;;;;;5067300;28;20276;-59
2024/03/05 02:10:36;;;;;;;58.42;22.90;;;;;;;;;;5078266;28;20036;-58
2024/03/05 02:13:03;;;;;;;68.28;22.23;;;;;;;;;;5069345;28;20108;-59
2024/03/05 02:15:29;;;;;;;67.82;23.80;;;;;;;;;;5073777;28;20103;-58
2024/03/05 02:17:55;;;;;;;65.38;20.52;;;;;;;;;;5070563;28;20222;-58
2024/03/05 02:20:21;;;;;;;65.00;22.65;;;;;;;;;;5070877;28;20025;-59
2024/03/05 02:22:47;;;;;;;74.95;24.77;;;;;;;;;;5065033;28;20037;-58
2024/03/05 02:25:15;;;;;;;71.97;22.85;;;;;;;;;;5063703;28;20329;-59
2024/03/05 02:27:41;;;;;;;70.13;22.40;;;;;;;;;;5062689;28;20089;-59
2024/03/05 02:30:10;;;;;;;66.55;23.45;;;;;;;;;;5066290;28;20037;-59
2024/03/05 02:32:40;;;;;;;76.30;23.98;;;;;;;;;;5066912;28;20067;-59
2024/03/05 02:35:06;;;;;;;65.25;23.63;;;;;;;;;;5060852;28;20016;-58
2024/03/05 02:37:32;;;;;;;74.60;25.15;;;;;;;;;;5064684;28;20038;-58
2024/03/05 02:39:58;;;;;;;79.30;25.52;;;;;;;;;;5068353;28;20016;-56
2024/03/05 02:42:25;;;;;;;77.40;27.17;;;;;;;;;;5062804;28;20165;-56
2024/03/05 02:44:50;;;;;;;69.93;23.52;;;;;;;;;;5064108;28;20069;-59
2024/03/05 02:47:16;;;;;;;68.22;24.25;;;;;;;;;;5073217;28;20107;-60
2024/03/05 02:49:42;;;;;;;76.60;26.83;;;;;;;;;;5072907;28;20028;-58
2024/03/05 02:52:08;;;;;;;73.68;26.42;;;;;;;;;;5070640;28;20101;-57
2024/03/05 02:54:34;;;;;;;78.38;25.58;;;;;;;;;;5068931;28;20024;-59
2024/03/05 02:57:00;;;;;;;85.07;24.58;;;;;;;;;;5069869;28;20032;-58
2024/03/05 02:59:26;;;;;;;76.28;27.58;;;;;;;;;;5073587;28;20028;-58
2024/03/05 03:01:52;;;;;;;81.78;26.40;;;;;;;;;;5066809;28;20021;-57
2024/03/05 03:04:18;;;;;;;88.28;27.30;;;;;;;;;;5069357;28;20482;-59
2024/03/05 03:06:44;;;;;;;79.35;26.02;;;;;;;;;;5067187;28;20024;-57
2024/03/05 03:09:10;;;;;;;88.57;25.65;;;;;;;;;;5067234;28;20059;-60
2024/03/05 03:11:40;;;;;;;74.53;23.98;;;;;;;;;;5076629;28;20397;-58
2024/03/05 03:14:08;;;;;;;86.53;27.27;;;;;;;;;;5068347;28;20036;-57
2024/03/05 03:16:34;;;;;;;85.22;25.25;;;;;;;;;;5067828;28;20060;-57
2024/03/05 03:19:00;;;;;;;75.85;27.02;;;;;;;;;;5067731;28;20032;-57
2024/03/05 03:21:26;;;;;;;83.88;26.42;;;;;;;;;;5070482;28;20390;-57
2024/03/05 03:23:52;;;;;;;92.13;28.10;;;;;;;;;;5068581;28;20500;-56
2024/03/05 03:26:18;;;;;;;86.63;26.83;;;;;;;;;;5064648;28;20500;-59
2024/03/05 03:28:44;;;;;;;80.88;27.48;;;;;;;;;;5065099;28;20032;-58
2024/03/05 03:31:10;;;;;;;70.35;25.40;;;;;;;;;;5069376;28;20056;-58
2024/03/05 03:33:38;;;;;;;70.80;22.98;;;;;;;;;;5067926;28;20107;-58
2024/03/05 03:36:04;;;;;;;90.88;28.33;;;;;;;;;;5069577;28;20024;-57
2024/03/05 03:38:30;;;;;;;93.57;28.55;;;;;;;;;;5050607;28;20645;-56
2024/03/05 03:40:56;;;;;;;85.38;27.52;;;;;;;;;;5069422;28;20025;-55
2024/03/05 03:43:22;;;;;;;75.55;26.48;;;;;;;;;;5071238;28;20036;-57
2024/03/05 03:45:48;;;;;;;78.25;25.88;;;;;;;;;;5066503;28;20074;-58
2024/03/05 03:48:14;;;;;;;74.13;24.38;;;;;;;;;;5067236;28;20525;-57
2024/03/05 03:50:40;;;;;;;71.25;23.83;;;;;;;;;;5068033;28;20043;-57
2024/03/05 03:53:06;;;;;;;72.70;23.48;;;;;;;;;;5066729;28;20051;-58
2024/03/05 03:55:33;;;;;;;88.13;25.95;;;;;;;;;;5052045;28;20491;-59
2024/03/05 03:57:59;;;;;;;73.82;23.45;;;;;;;;;;5068504;28;20043;-58
2024/03/05 04:00:25;;;;;;;69.22;23.30;;;;;;;;;;5069577;28;20040;-60
2024/03/05 04:02:51;;;;;;;86.53;25.10;;;;;;;;;;5066437;28;20410;-58
2024/03/05 04:05:17;;;;;;;75.57;25.25;;;;;;;;;;5070648;28;20541;-55
2024/03/05 04:07:43;;;;;;;66.43;24.50;;;;;;;;;;5065183;28;20036;-57
2024/03/05 04:10:12;;;;;;;78.03;24.65;;;;;;;;;;5066275;28;20043;-58
2024/03/05 04:12:41;;;;;;;80.78;24.80;;;;;;;;;;5066697;28;20116;-59
2024/03/05 04:15:12;;;;;;;80.45;25.83;;;;;;;;;;5067626;28;20131;-59
2024/03/05 04:17:38;;;;;;;74.85;24.00;;;;;;;;;;5066010;28;20082;-60
2024/03/05 04:20:08;;;;;;;76.80;25.13;;;;;;;;;;5066777;28;20025;-57
2024/03/05 04:22:34;;;;;;;70.25;24.27;;;;;;;;;;5063622;28;20020;-57
2024/03/05 04:25:00;;;;;;;73.07;26.38;;;;;;;;;;5068576;28;20032;-58
2024/03/05 04:27:27;;;;;;;81.20;28.40;;;;;;;;;;5068800;28;20108;-58
2024/03/05 04:29:56;;;;;;;78.90;27.10;;;;;;;;;;5066048;28;20091;-57
2024/03/05 04:32:23;;;;;;;82.45;28.85;;;;;;;;;;5069747;28;20025;-57
2024/03/05 04:34:59;;;;;;;84.22;25.75;;;;;;;;;;5068398;28;20035;-60
2024/03/05 04:37:25;;;;;;;90.95;28.70;;;;;;;;;;5064577;28;20035;-58
2024/03/05 04:39:51;;;;;;;82.45;26.75;;;;;;;;;;5066676;28;20025;-57
2024/03/05 04:42:17;;;;;;;96.35;27.48;;;;;;;;;;5060051;28;20028;-58
2024/03/05 04:44:43;;;;;;;83.80;28.25;;;;;;;;;;5065630;28;20077;-57
2024/03/05 04:47:10;;;;;;;84.90;27.42;;;;;;;;;;5071186;28;20028;-58
2024/03/05 04:49:36;;;;;;;90.63;29.98;;;;;;;;;;5072088;28;20043;-58
2024/03/05 04:52:02;;;;;;;93.85;29.60;;;;;;;;;;5066188;28;20035;-59
2024/03/05 04:54:29;;;;;;;89.03;30.58;;;;;;;;;;5067007;28;20379;-59
2024/03/05 04:56:55;;;;;;;94.95;31.17;;;;;;;;;;5072266;28;20029;-59
2024/03/05 04:59:21;;;;;;;92.47;29.58;;;;;;;;;;5062345;28;20020;-58
2024/03/05 05:01:47;;;;;;;93.80;31.88;;;;;;;;;;5073572;28;21178;-57
2024/03/05 05:04:13;;;;;;;86.55;31.08;;;;;;;;;;5061977;28;20039;-58
2024/03/05 05:06:39;;;;;;;91.57;30.67;;;;;;;;;;5067032;28;20571;-57
2024/03/05 05:09:05;;;;;;;97.75;29.50;;;;;;;;;;5064820;28;20064;-56
2024/03/05 05:11:34;;;;;;;106.65;35.00;;;;;;;;;;5067271;28;20033;-57
2024/03/05 05:14:00;;;;;;;100.10;32.65;;;;;;;;;;5055640;28;20033;-58
2024/03/05 05:16:26;;;;;;;95.97;31.95;;;;;;;;;;5062222;28;20496;-56
2024/03/05 05:18:52;;;;;;;106.75;31.63;;;;;;;;;;5055087;28;20021;-58
2024/03/05 05:21:19;;;;;;;98.47;31.25;;;;;;;;;;5057485;28;20100;-59
2024/03/05 05:23:45;;;;;;;102.93;32.83;;;;;;;;;;5057433;28;20104;-59
2024/03/05 05:26:12;;;;;;;102.60;33.80;;;;;;;;;;5056830;28;20111;-58
2024/03/05 05:28:40;;;;;;;104.70;31.10;;;;;;;;;;5065181;28;20025;-59
2024/03/05 05:31:08;;;;;;;101.38;30.92;;;;;;;;;;5060421;28;20729;-59
2024/03/05 05:33:34;;;;;;;98.28;30.50;;;;;;;;;;5065082;28;20047;-57
2024/03/05 05:36:00;;;;;;;99.78;30.75;;;;;;;;;;5060658;28;20031;-56
2024/03/05 05:38:26;;;;;;;105.78;32.70;;;;;;;;;;5067071;28;20104;-58
2024/03/05 05:40:51;;;;;;;108.20;33.85;;;;;;;;;;5062722;28;20116;-59
2024/03/05 05:43:18;;;;;;;99.40;29.52;;;;;;;;;;5064300;28;20074;-58
2024/03/05 05:45:48;;;;;;;100.07;31.83;;;;;;;;;;5064765;28;20025;-56
2024/03/05 05:48:23;;;;;;;105.85;29.90;;;;;;;;;;5078468;28;20107;-57
2024/03/05 05:50:53;;;;;;;99.10;30.85;;;;;;;;;;5063809;28;20490;-57
2024/03/05 05:53:19;;;;;;;104.70;30.55;;;;;;;;;;5068349;28;20428;-57
2024/03/05 05:55:45;;;;;;;93.90;30.35;;;;;;;;;;5066194;28;20035;-58
2024/03/05 05:58:13;;;;;;;109.55;31.10;;;;;;;;;;5067469;28;20123;-58
2024/03/05 06:00:39;;;;;;;88.43;29.40;;;;;;;;;;5066869;28;20020;-57
2024/03/05 06:03:09;;;;;;;97.60;30.90;;;;;;;;;;5066766;28;20021;-58
2024/03/05 06:05:36;;;;;;;102.28;30.42;;;;;;;;;;5063382;28;20089;-58
2024/03/05 06:08:03;;;;;;;107.20;31.15;;;;;;;;;;5063275;28;20040;-58
2024/03/05 06:10:29;;;;;;;117.93;33.42;;;;;;;;;;5062165;28;20036;-57
2024/03/05 06:12:55;;;;;;;109.15;31.35;;;;;;;;;;5062756;28;20044;-59
2024/03/05 06:15:21;;;;;;;109.28;31.30;;;;;;;;;;5065906;28;20040;-59
2024/03/05 06:17:47;;;;;;;98.28;31.02;;;;;;;;;;5048463;28;20033;-57
2024/03/05 06:20:14;;;;;;;111.57;31.38;;;;;;;;;;5064696;28;20021;-57
2024/03/05 06:22:41;;;;;;;106.45;31.90;;;;;;;;;;5064005;28;20020;-57
2024/03/05 06:25:11;;;;;;;115.80;34.42;;;;;;;;;;5068425;28;20111;-58
2024/03/05 06:27:38;;;;;;;109.82;31.50;;;;;;;;;;5067496;28;20043;-57
2024/03/05 06:30:07;;;;;;;110.20;32.33;;;;;;;;;;5066101;28;20037;-59
2024/03/05 06:32:36;;;;;;;96.70;29.58;;;;;;;;;;5068406;28;20632;-60
2024/03/05 06:35:02;;;;;;;108.68;31.30;;;;;;;;;;5063994;28;20059;-57
2024/03/05 06:37:28;;;;;;;96.50;30.63;;;;;;;;;;5049804;28;20035;-56
2024/03/05 06:39:54;;;;;;;102.57;32.13;;;;;;;;;;5070478;28;20047;-57
2024/03/05 06:42:23;;;;;;;104.95;31.58;;;;;;;;;;5065840;28;20060;-58
2024/03/05 06:44:54;;;;;;;93.25;29.17;;;;;;;;;;5072883;28;20020;-57
2024/03/05 06:47:27;;;;;;;104.57;30.75;;;;;;;;;;5071068;28;20096;-58
2024/03/05 06:49:57;;;;;;;94.85;28.30;;;;;;;;;;5074820;28;20119;-59
2024/03/05 06:57:52;;;;;;;66.97;20.53;;;;;;;;;;5078580;28;20320;-57
2024/03/05 07:00:18;;;;;;;94.25;30.05;;;;;;;;;;5069193;28;20327;-57
2024/03/05 07:02:44;;;;;;;100.85;31.70;;;;;;;;;;5068903;28;20108;-57
2024/03/05 07:05:10;;;;;;;94.18;30.98;;;;;;;;;;5082467;28;20053;-61
2024/03/05 07:07:37;;;;;;;99.03;31.10;;;;;;;;;;5095385;28;20051;-60
2024/03/05 07:10:13;;;;;;;103.10;29.98;;;;;;;;;;5081903;28;20044;-58
2024/03/05 07:12:40;;;;;;;95.40;30.42;;;;;;;;;;5078965;28;20025;-56
2024/03/05 07:15:09;;;;;;;103.47;29.33;;;;;;;;;;5074048;28;20078;-59
2024/03/05 07:17:35;;;;;;;97.50;30.48;;;;;;;;;;5075086;28;20542;-59
2024/03/05 07:20:03;;;;;;;94.05;30.48;;;;;;;;;;5070231;28;20029;-57
2024/03/05 07:22:29;;;;;;;95.45;30.25;;;;;;;;;;5078638;28;20503;-55
2024/03/05 07:24:55;;;;;;;104.72;30.92;;;;;;;;;;5067432;28;20103;-58
2024/03/05 07:27:21;;;;;;;101.18;28.95;;;;;;;;;;5079687;28;20028;-59
2024/03/05 07:29:47;;;;;;;94.25;30.80;;;;;;;;;;5073432;28;20488;-58
2024/03/05 07:32:15;;;;;;;111.20;32.60;;;;;;;;;;5068852;28;20029;-59
2024/03/05 07:34:41;;;;;;;102.65;30.88;;;;;;;;;;5071247;28;20020;-60
2024/03/05 07:37:08;;;;;;;101.53;32.85;;;;;;;;;;5068258;28;20454;-57
2024/03/05 07:39:34;;;;;;;106.43;31.80;;;;;;;;;;5066656;28;20047;-58
2024/03/05 07:42:00;;;;;;;101.07;31.75;;;;;;;;;;5075655;28;20029;-58
2024/03/05 07:44:26;;;;;;;102.38;29.63;;;;;;;;;;5068590;28;20028;-57
2024/03/05 07:46:52;;;;;;;103.97;31.80;;;;;;;;;;5071602;28;20054;-55
2024/03/05 07:49:18;;;;;;;99.75;28.88;;;;;;;;;;5069631;28;20090;-58
2024/03/05 07:51:44;;;;;;;98.93;30.00;;;;;;;;;;5067640;28;20032;-56
2024/03/05 07:54:10;;;;;;;95.47;28.35;;;;;;;;;;5063624;28;20086;-58
2024/03/05 07:56:36;;;;;;;98.65;30.33;;;;;;;;;;5072043;28;20108;-59
2024/03/05 07:59:02;;;;;;;99.32;30.20;;;;;;;;;;5065985;28;20033;-58
2024/03/05 08:01:28;;;;;;;112.47;32.50;;;;;;;;;;5073764;28;20478;-59
2024/03/05 08:03:54;;;;;;;105.80;31.17;;;;;;;;;;5070101;28;20103;-59
2024/03/05 08:06:20;;;;;;;98.50;31.45;;;;;;;;;;5066453;28;20021;-59
2024/03/05 08:08:46;;;;;;;107.47;31.77;;;;;;;;;;5069874;28;20024;-57
2024/03/05 08:11:12;;;;;;;117.25;30.65;;;;;;;;;;5072245;28;20102;-56
2024/03/05 08:13:38;;;;;;;99.68;31.80;;;;;;;;;;5063687;28;20257;-58
2024/03/05 08:16:04;;;;;;;101.97;31.50;;;;;;;;;;5064804;28;20115;-59
2024/03/05 08:18:31;;;;;;;109.43;33.78;;;;;;;;;;5073964;28;20099;-60
2024/03/05 08:20:57;;;;;;;105.32;30.83;;;;;;;;;;5071498;28;20467;-59
2024/03/05 08:23:23;;;;;;;99.13;28.27;;;;;;;;;;5073865;28;20138;-60
2024/03/05 08:25:49;;;;;;;98.65;31.00;;;;;;;;;;5069660;28;20040;-60
2024/03/05 08:28:14;;;;;;;100.78;29.95;;;;;;;;;;5068869;28;20027;-58
2024/03/05 08:30:42;;;;;;;96.35;30.33;;;;;;;;;;5070599;28;20082;-61
2024/03/05 08:33:08;;;;;;;115.22;32.50;;;;;;;;;;5071665;28;20145;-58
2024/03/05 08:35:34;;;;;;;116.00;33.35;;;;;;;;;;5065953;28;20029;-60
2024/03/05 08:38:00;;;;;;;107.82;32.95;;;;;;;;;;5068404;28;20044;-60
2024/03/05 08:40:27;;;;;;;118.95;30.83;;;;;;;;;;5068331;28;20056;-59
2024/03/05 08:42:58;;;;;;;99.80;30.45;;;;;;;;;;5065838;28;20024;-60
2024/03/05 08:45:24;;;;;;;117.13;32.38;;;;;;;;;;5051263;28;20094;-59
2024/03/05 08:47:54;;;;;;;110.47;32.80;;;;;;;;;;5074773;28;22068;-59
2024/03/05 08:50:21;;;;;;;101.50;30.98;;;;;;;;;;5071459;28;20033;-60
2024/03/05 08:52:47;;;;;;;107.70;31.02;;;;;;;;;;5065239;28;20533;-59
2024/03/05 08:55:15;;;;;;;91.32;28.98;;;;;;;;;;5068540;28;20029;-58
2024/03/05 08:57:41;;;;;;;104.32;28.80;;;;;;;;;;5067717;28;20479;-58
2024/03/05 09:00:08;;;;;;;107.35;31.98;;;;;;;;;;5067077;28;20033;-58
2024/03/05 09:02:34;;;;;;;119.05;31.95;;;;;;;;;;5068594;28;20509;-60
2024/03/05 09:05:02;;;;;;;112.93;32.97;;;;;;;;;;5069485;28;20024;-58
2024/03/05 09:07:28;;;;;;;107.28;29.67;;;;;;;;;;5073849;28;20070;-60
2024/03/05 09:09:54;;;;;;;110.70;32.28;;;;;;;;;;5074523;28;20032;-58
2024/03/05 09:12:20;;;;;;;96.85;31.83;;;;;;;;;;5061558;28;20025;-59
2024/03/05 09:14:46;;;;;;;111.10;30.92;;;;;;;;;;5071756;28;20073;-60
2024/03/05 09:17:12;;;;;;;113.25;31.58;;;;;;;;;;5067996;28;20028;-60
2024/03/05 09:19:38;;;;;;;113.65;30.83;;;;;;;;;;5066217;28;20494;-59
2024/03/05 09:22:05;;;;;;;109.13;32.83;;;;;;;;;;5063895;28;20036;-57
2024/03/05 09:24:35;;;;;;;108.45;32.35;;;;;;;;;;5071713;28;20425;-60
2024/03/05 09:27:01;;;;;;;113.95;30.50;;;;;;;;;;5065867;28;20110;-60
2024/03/05 09:29:27;;;;;;;119.60;31.80;;;;;;;;;;5047906;28;20043;-60
2024/03/05 09:31:53;;;;;;;127.95;35.00;;;;;;;;;;5065607;28;20020;-60
2024/03/05 09:34:19;;;;;;;112.20;31.83;;;;;;;;;;5066892;28;20036;-58
2024/03/05 09:36:45;;;;;;;117.75;32.65;;;;;;;;;;5057222;28;20393;-59
2024/03/05 09:39:11;;;;;;;107.40;31.75;;;;;;;;;;5061025;28;20034;-58
2024/03/05 09:41:41;;;;;;;112.65;31.80;;;;;;;;;;5064808;28;20034;-60
2024/03/05 09:44:08;;;;;;;105.10;32.95;;;;;;;;;;5069461;28;20029;-58
2024/03/05 09:46:37;;;;;;;131.75;35.03;;;;;;;;;;5063378;28;20072;-60
2024/03/05 09:49:03;;;;;;;104.38;33.30;;;;;;;;;;5067211;28;20396;-58
2024/03/05 09:51:30;;;;;;;121.82;34.47;;;;;;;;;;5067776;28;20063;-58
2024/03/05 09:53:56;;;;;;;116.63;35.92;;;;;;;;;;5073375;28;20028;-58
2024/03/05 09:56:22;;;;;;;109.72;35.60;;;;;;;;;;5061198;28;20021;-60
2024/03/05 09:58:48;;;;;;;135.73;38.58;;;;;;;;;;5063121;28;20036;-58
2024/03/05 10:01:14;;;;;;;118.65;37.10;;;;;;;;;;5064472;28;20093;-57
2024/03/05 10:03:41;;;;;;;129.27;37.17;;;;;;;;;;5073257;28;20036;-59
2024/03/05 10:06:07;;;;;;;126.70;38.05;;;;;;;;;;5066601;28;20059;-58
2024/03/05 10:08:34;;;;;;;109.82;36.05;;;;;;;;;;5058168;28;20491;-57
2024/03/05 10:11:00;;;;;;;123.85;36.97;;;;;;;;;;5064391;28;20025;-59
2024/03/05 10:13:30;;;;;;;139.00;38.08;;;;;;;;;;5066201;28;20382;-59
2024/03/05 10:16:13;;;;;;;115.85;36.22;;;;;;;;;;5066114;28;20382;-59
2024/03/05 10:18:39;;;;;;;140.15;35.88;;;;;;;;;;5061561;28;20039;-60
2024/03/05 10:21:18;;;;;;;112.07;35.25;;;;;;;;;;5064336;28;20061;-57
2024/03/05 10:23:44;;;;;;;131.77;37.50;;;;;;;;;;5066563;28;20044;-58
2024/03/05 10:26:20;;;;;;;135.77;36.42;;;;;;;;;;5071188;28;20027;-59
2024/03/05 10:28:46;;;;;;;131.43;35.28;;;;;;;;;;5066209;28;20035;-58
2024/03/05 10:31:22;;;;;;;110.63;32.58;;;;;;;;;;5068589;28;20029;-59
2024/03/05 10:33:49;;;;;;;116.47;34.78;;;;;;;;;;5063616;28;20056;-59
2024/03/05 10:36:23;;;;;;;121.10;35.33;;;;;;;;;;5058954;28;20032;-59
2024/03/05 10:38:49;;;;;;;116.00;33.03;;;;;;;;;;5064849;28;20036;-60
2024/03/05 10:41:20;;;;;;;119.50;32.17;;;;;;;;;;5068291;28;20058;-58
2024/03/05 10:43:47;;;;;;;110.35;34.58;;;;;;;;;;5067926;28;20027;-60
2024/03/05 10:46:13;;;;;;;116.90;34.97;;;;;;;;;;5063561;28;20393;-58
2024/03/05 10:48:41;;;;;;;115.38;36.20;;;;;;;;;;5065322;28;20058;-59
2024/03/05 10:51:08;;;;;;;124.65;33.03;;;;;;;;;;5063245;28;20148;-60
2024/03/05 10:53:34;;;;;;;130.20;33.67;;;;;;;;;;5068641;28;20020;-59
2024/03/05 10:56:00;;;;;;;111.28;31.17;;;;;;;;;;5064543;28;20028;-59
2024/03/05 10:58:57;;;;;;;86.85;25.88;;;;;;;;;;5066005;28;20024;-60
2024/03/05 11:01:17;;;;;;;96.20;26.15;;;;;;;;;;5066815;28;20033;-59
2024/03/05 11:03:44;;;;;;;85.70;24.02;;;;;;;;;;5068289;28;20027;-59
2024/03/05 11:06:10;;;;;;;91.43;27.60;;;;;;;;;;5065590;28;20099;-59
2024/03/05 11:08:36;;;;;;;92.22;28.17;;;;;;;;;;5073087;28;20121;-65
2024/03/05 11:11:02;;;;;;;69.43;23.92;;;;;;;;;;5063835;28;20064;-58
2024/03/05 11:13:29;;;;;;;80.68;26.88;;;;;;;;;;5070191;28;20489;-60
2024/03/05 11:15:55;;;;;;;82.72;27.67;;;;;;;;;;5068686;28;20032;-59
2024/03/05 11:18:39;;;;;;;93.55;27.48;;;;;;;;;;5072958;28;20031;-59
2024/03/05 11:21:08;;;;;;;89.03;28.80;;;;;;;;;;5068748;28;20117;-59
2024/03/05 11:23:36;;;;;;;71.50;21.88;;;;;;;;;;5069317;28;20023;-58
2024/03/05 11:26:04;;;;;;;76.07;24.08;;;;;;;;;;5070419;28;20074;-58
2024/03/05 11:28:31;;;;;;;85.00;26.70;;;;;;;;;;5070813;28;20055;-62
2024/03/05 11:31:19;;;;;;;84.35;28.23;;;;;;;;;;5071362;28;20475;-58
2024/03/05 11:33:45;;;;;;;70.50;24.60;;;;;;;;;;5072701;28;20044;-59
2024/03/05 11:36:20;;;;;;;78.88;26.83;;;;;;;;;;5054916;28;20430;-59
2024/03/05 11:39:06;;;;;;;77.65;23.90;;;;;;;;;;5069038;28;20388;-59
2024/03/05 11:41:34;;;;;;;94.30;28.45;;;;;;;;;;5071545;28;20486;-59
2024/03/05 11:44:00;;;;;;;67.80;24.60;;;;;;;;;;5074524;28;20402;-59
2024/03/05 11:46:45;;;;;;;80.68;24.38;;;;;;;;;;5070997;28;20111;-60
2024/03/05 11:49:11;;;;;;;69.93;25.13;;;;;;;;;;5072473;28;20021;-60
2024/03/05 11:51:41;;;;;;;73.40;24.70;;;;;;;;;;5072663;28;20106;-58
2024/03/05 11:54:08;;;;;;;70.80;23.67;;;;;;;;;;5069330;28;20046;-59
2024/03/05 11:56:35;;;;;;;57.83;21.98;;;;;;;;;;5066781;28;20159;-59
2024/03/05 11:59:01;;;;;;;68.88;24.50;;;;;;;;;;5074254;28;20056;-60
2024/03/05 12:01:29;;;;;;;64.53;23.15;;;;;;;;;;5068281;28;20113;-59
2024/03/05 12:04:07;;;;;;;56.70;21.55;;;;;;;;;;5069605;28;20101;-60
2024/03/05 12:06:34;;;;;;;56.13;20.95;;;;;;;;;;5068834;28;20031;-59
2024/03/05 12:09:20;;;;;;;54.10;19.30;;;;;;;;;;5070364;28;20040;-60
2024/03/05 12:12:02;;;;;;;50.80;20.05;;;;;;;;;;5068211;28;20029;-58
2024/03/05 12:14:29;;;;;;;54.67;19.15;;;;;;;;;;5069138;28;20091;-57
2024/03/05 12:16:59;;;;;;;58.85;20.92;;;;;;;;;;5064599;28;20075;-59
2024/03/05 12:19:25;;;;;;;51.10;19.20;;;;;;;;;;5064646;28;20039;-58
2024/03/05 12:21:53;;;;;;;52.03;18.88;;;;;;;;;;5071588;28;20032;-59
2024/03/05 12:24:21;;;;;;;42.38;16.90;;;;;;;;;;5071757;28;20146;-58
2024/03/05 12:26:47;;;;;;;46.30;17.63;;;;;;;;;;5069350;28;20070;-58
2024/03/05 12:29:13;;;;;;;54.47;17.70;;;;;;;;;;5063891;28;20495;-58
2024/03/05 12:31:39;;;;;;;60.55;19.63;;;;;;;;;;5064106;28;20035;-58
2024/03/05 12:34:06;;;;;;;47.22;17.13;;;;;;;;;;5066955;28;20029;-57
2024/03/05 12:36:32;;;;;;;43.15;17.35;;;;;;;;;;5069472;28;20016;-57
2024/03/05 12:38:58;;;;;;;40.70;15.65;;;;;;;;;;5063143;28;20028;-57
2024/03/05 12:41:24;;;;;;;35.88;15.50;;;;;;;;;;5066229;28;20028;-58
2024/03/05 12:43:51;;;;;;;48.78;16.35;;;;;;;;;;5064931;28;20036;-58
2024/03/05 12:46:19;;;;;;;33.05;14.13;;;;;;;;;;5065364;28;20036;-57
2024/03/05 12:48:44;;;;;;;35.15;15.52;;;;;;;;;;5064529;28;20537;-59
2024/03/05 12:51:12;;;;;;;31.90;14.38;;;;;;;;;;5064016;28;20032;-54
2024/03/05 12:53:38;;;;;;;33.90;15.05;;;;;;;;;;5065991;28;20028;-59
2024/03/05 12:56:05;;;;;;;33.20;14.02;;;;;;;;;;5065231;28;20067;-59
2024/03/05 12:58:39;;;;;;;31.73;13.98;;;;;;;;;;5065464;28;20052;-58
2024/03/05 13:01:05;;;;;;;31.35;13.43;;;;;;;;;;5063443;28;20513;-56
2024/03/05 13:03:31;;;;;;;31.27;13.75;;;;;;;;;;5067122;28;20017;-59
2024/03/05 13:05:56;;;;;;;28.63;13.52;;;;;;;;;;5047496;28;20024;-59
2024/03/05 13:08:22;;;;;;;33.30;14.70;;;;;;;;;;5063436;28;20033;-56
2024/03/05 13:10:48;;;;;;;39.97;13.25;;;;;;;;;;5068915;28;20029;-59
2024/03/05 13:13:14;;;;;;;33.15;15.38;;;;;;;;;;5066053;28;20024;-59
2024/03/05 13:15:40;;;;;;;35.25;15.65;;;;;;;;;;5068691;28;20020;-59
2024/03/05 13:18:08;;;;;;;33.80;14.18;;;;;;;;;;5067158;28;20525;-58
2024/03/05 13:20:34;;;;;;;30.85;14.32;;;;;;;;;;5067742;28;20095;-59
2024/03/05 13:23:00;;;;;;;32.53;12.77;;;;;;;;;;5067592;28;20107;-59
2024/03/05 13:25:28;;;;;;;28.98;12.45;;;;;;;;;;5066846;28;20036;-59
2024/03/05 13:27:54;;;;;;;29.55;12.80;;;;;;;;;;5060413;28;20036;-57
2024/03/05 13:30:20;;;;;;;28.40;13.27;;;;;;;;;;5068328;28;20024;-58
2024/03/05 13:32:47;;;;;;;30.40;13.95;;;;;;;;;;5067904;28;20039;-59
2024/03/05 13:35:14;;;;;;;27.17;12.60;;;;;;;;;;5065427;28;20120;-55
2024/03/05 13:37:43;;;;;;;31.85;13.65;;;;;;;;;;5068255;28;20035;-59
2024/03/05 13:40:13;;;;;;;34.20;14.27;;;;;;;;;;5062965;28;20111;-58
2024/03/05 13:42:39;;;;;;;30.55;12.23;;;;;;;;;;5068809;28;20024;-58
2024/03/05 13:45:09;;;;;;;32.40;13.70;;;;;;;;;;5068604;28;20028;-57
2024/03/05 13:47:38;;;;;;;30.13;13.38;;;;;;;;;;5065898;28;20024;-58
2024/03/05 13:50:09;;;;;;;22.35;11.25;;;;;;;;;;5066388;28;20044;-59
2024/03/05 13:52:35;;;;;;;21.30;10.68;;;;;;;;;;5068769;28;20103;-59
2024/03/05 13:55:02;;;;;;;29.70;12.05;;;;;;;;;;5067861;28;20538;-58
2024/03/05 13:57:29;;;;;;;19.02;9.15;;;;;;;;;;5062718;28;20514;-58
2024/03/05 13:59:55;;;;;;;27.52;12.02;;;;;;;;;;5065652;28;20033;-60
2024/03/05 14:02:21;;;;;;;27.30;11.48;;;;;;;;;;5066800;28;20447;-59
2024/03/05 14:04:47;;;;;;;22.80;10.88;;;;;;;;;;5069037;28;20474;-60
2024/03/05 14:07:15;;;;;;;23.38;11.32;;;;;;;;;;5072178;28;20486;-57
2024/03/05 14:09:45;;;;;;;28.13;11.45;;;;;;;;;;5061661;28;20642;-59
2024/03/05 14:12:11;;;;;;;25.35;11.80;;;;;;;;;;5068483;28;20040;-58
2024/03/05 14:14:37;;;;;;;25.73;11.95;;;;;;;;;;5068255;28;20040;-59
2024/03/05 14:17:03;;;;;;;25.95;12.27;;;;;;;;;;5062924;28;20037;-59
2024/03/05 14:19:29;;;;;;;29.98;11.43;;;;;;;;;;5069003;28;20029;-60